sensor_id;sensor_type;location;lat;lon;timestamp;pressure;altitude;pressure_sealevel;temperature;humidity
68197;BME280;55019;49.382;11.358;2023-04-01T00:00:30;95190.03;;;6.51;100.00
68197;BME280;55019;49.382;11.358;2023-04-01T00:02:56;95192.75;;;6.50;100.00
68197;BME280;55019;49.382;11.358;2023-04-01T00:05:22;95184.25;;;6.49;100.00
68197;BME280;55019;49.382;11.358;2023-04-01T00:07:50;95183.03;;;6.60;100.00
68197;BME280;55019;49.382;11.358;2023-04-01T00:10:16;95182.06;;;6.61;100.00
68197;BME280;55019;49.382;11.358;2023-04-01T00:12:43;95172.63;;;6.61;100.00
68197;BME280;55019;49.382;11.358;2023-04-01T00:15:10;95181.56;;;6.65;100.00
68197;BME280;55019;49.382;11.358;2023-04-01T00:17:37;95177.91;;;6.60;100.00
68197;BME280;55019;49.382;11.358;2023-04-01T00:20:04;95169.09;;;6.62;100.00
68197;BME280;55019;49.382;11.358;2023-04-01T00:22:30;95177.13;;;6.59;100.00
68197;BME280;55019;49.382;11.358;2023-04-01T00:24:56;95164.81;;;6.55;100.00
68197;BME280;55019;49.382;11.358;2023-04-01T00:27:22;95177.13;;;6.59;100.00
68197;BME280;55019;49.382;11.358;2023-04-01T00:29:48;95174.56;;;6.59;100.00
68197;BME280;55019;49.382;11.358;2023-04-01T00:32:14;95179.22;;;6.56;100.00
68197;BME280;55019;49.382;11.358;2023-04-01T00:34:40;95181.00;;;6.55;100.00
68197;BME280;55019;49.382;11.358;2023-04-01T00:37:07;95181.91;;;6.62;100.00
68197;BME280;55019;49.382;11.358;2023-04-01T00:39:34;95186.59;;;6.59;100.00
68197;BME280;55019;49.382;11.358;2023-04-01T00:42:01;95178.72;;;6.60;100.00
68197;BME280;55019;49.382;11.358;2023-04-01T00:44:31;95184.97;;;6.58;100.00
68197;BME280;55019;49.382;11.358;2023-04-01T00:46:57;95177.91;;;6.60;100.00
68197;BME280;55019;49.382;11.358;2023-04-01T00:49:26;95173.66;;;6.52;100.00
68197;BME280;55019;49.382;11.358;2023-04-01T00:51:55;95183.38;;;6.57;100.00
68197;BME280;55019;49.382;11.358;2023-04-01T00:54:24;95184.31;;;6.64;100.00
68197;BME280;55019;49.382;11.358;2023-04-01T00:57:00;95179.47;;;6.69;100.00
68197;BME280;55019;49.382;11.358;2023-04-01T00:59:30;95185.09;;;6.64;100.00
68197;BME280;55019;49.382;11.358;2023-04-01T01:01:57;95178.38;;;6.63;100.00
68197;BME280;55019;49.382;11.358;2023-04-01T01:04:45;95179.63;;;6.67;100.00
68197;BME280;55019;49.382;11.358;2023-04-01T01:08:23;95175.97;;;6.62;100.00
68197;BME280;55019;49.382;11.358;2023-04-01T01:10:54;95189.53;;;6.70;100.00
68197;BME280;55019;49.382;11.358;2023-04-01T01:13:37;95183.09;;;6.74;100.00
68197;BME280;55019;49.382;11.358;2023-04-01T01:16:29;95181.69;;;6.72;100.00
68197;BME280;55019;49.382;11.358;2023-04-01T01:22:04;95182.19;;;6.67;100.00
68197;BME280;55019;49.382;11.358;2023-04-01T01:27:15;95170.25;;;6.74;99.95
68197;BME280;55019;49.382;11.358;2023-04-01T01:38:34;95167.41;;;6.69;98.90
68197;BME280;55019;49.382;11.358;2023-04-01T01:41:05;95163.88;;;6.70;99.33
68197;BME280;55019;49.382;11.358;2023-04-01T01:43:36;95162.91;;;6.71;99.80
68197;BME280;55019;49.382;11.358;2023-04-01T01:46:09;95164.16;;;6.75;100.00
68197;BME280;55019;49.382;11.358;2023-04-01T01:48:37;95159.66;;;6.77;99.65
68197;BME280;55019;49.382;11.358;2023-04-01T01:51:08;95159.72;;;6.69;99.74
68197;BME280;55019;49.382;11.358;2023-04-01T01:53:34;95164.16;;;6.75;98.93
68197;BME280;55019;49.382;11.358;2023-04-01T01:56:00;95159.22;;;6.74;97.87
68197;BME280;55019;49.382;11.358;2023-04-01T01:58:44;95161.25;;;6.78;98.59
68197;BME280;55019;49.382;11.358;2023-04-01T02:01:20;95157.06;;;6.77;97.03
68197;BME280;55019;49.382;11.358;2023-04-01T02:03:47;95159.91;;;6.82;98.23
68197;BME280;55019;49.382;11.358;2023-04-01T02:06:17;95153.19;;;6.81;96.74
68197;BME280;55019;49.382;11.358;2023-04-01T02:08:51;95150.53;;;6.75;96.33
68197;BME280;55019;49.382;11.358;2023-04-01T02:11:24;95165.13;;;6.74;96.66
68197;BME280;55019;49.382;11.358;2023-04-01T02:13:58;95153.81;;;6.69;97.52
68197;BME280;55019;49.382;11.358;2023-04-01T02:16:31;95159.38;;;6.72;96.94
68197;BME280;55019;49.382;11.358;2023-04-01T02:19:00;95162.84;;;6.79;96.56
68197;BME280;55019;49.382;11.358;2023-04-01T02:21:33;95158.03;;;6.76;97.28
68197;BME280;55019;49.382;11.358;2023-04-01T02:24:00;95161.50;;;6.83;96.59
68197;BME280;55019;49.382;11.358;2023-04-01T02:26:27;95164.78;;;6.77;95.75
68197;BME280;55019;49.382;11.358;2023-04-01T02:28:54;95168.31;;;6.76;95.63
68197;BME280;55019;49.382;11.358;2023-04-01T02:31:21;95161.59;;;6.75;95.11
68197;BME280;55019;49.382;11.358;2023-04-01T02:33:48;95175.31;;;6.82;95.36
68197;BME280;55019;49.382;11.358;2023-04-01T02:36:16;95165.66;;;6.84;95.55
68197;BME280;55019;49.382;11.358;2023-04-01T02:38:44;95167.63;;;6.82;94.22
68197;BME280;55019;49.382;11.358;2023-04-01T02:41:11;95170.81;;;6.84;94.35
68197;BME280;55019;49.382;11.358;2023-04-01T02:43:37;95171.63;;;6.85;94.27
68197;BME280;55019;49.382;11.358;2023-04-01T02:46:03;95182.66;;;6.85;93.61
68197;BME280;55019;49.382;11.358;2023-04-01T02:48:29;95174.00;;;6.86;93.75
68197;BME280;55019;49.382;11.358;2023-04-01T02:50:55;95179.06;;;6.80;94.44
68197;BME280;55019;49.382;11.358;2023-04-01T02:53:21;95175.50;;;6.81;93.64
68197;BME280;55019;49.382;11.358;2023-04-01T02:55:49;95180.72;;;6.87;93.27
68197;BME280;55019;49.382;11.358;2023-04-01T02:58:17;95169.22;;;6.83;93.31
68197;BME280;55019;49.382;11.358;2023-04-01T03:00:42;95175.28;;;6.90;94.04
68197;BME280;55019;49.382;11.358;2023-04-01T03:03:08;95181.53;;;6.88;94.25
68197;BME280;55019;49.382;11.358;2023-04-01T03:05:34;95178.81;;;6.89;92.59
68197;BME280;55019;49.382;11.358;2023-04-01T03:08:00;95158.88;;;6.77;92.31
68197;BME280;55019;49.382;11.358;2023-04-01T03:10:26;95186.69;;;6.88;93.00
68197;BME280;55019;49.382;11.358;2023-04-01T03:12:52;95179.75;;;6.88;93.49
68197;BME280;55019;49.382;11.358;2023-04-01T03:15:18;95182.25;;;6.82;93.28
68197;BME280;55019;49.382;11.358;2023-04-01T03:17:43;95183.56;;;6.78;94.12
68197;BME280;55019;49.382;11.358;2023-04-01T03:20:10;95181.06;;;6.84;93.40
68197;BME280;55019;49.382;11.358;2023-04-01T03:22:37;95181.53;;;6.88;92.86
68197;BME280;55019;49.382;11.358;2023-04-01T03:25:04;95187.91;;;6.92;91.97
68197;BME280;55019;49.382;11.358;2023-04-01T03:27:31;95187.13;;;6.91;92.82
68197;BME280;55019;49.382;11.358;2023-04-01T03:29:56;95189.88;;;6.90;92.99
68197;BME280;55019;49.382;11.358;2023-04-01T03:32:22;95197.41;;;6.91;92.14
68197;BME280;55019;49.382;11.358;2023-04-01T03:34:48;95193.06;;;6.92;91.80
68197;BME280;55019;49.382;11.358;2023-04-01T03:37:14;95196.72;;;6.97;92.98
68197;BME280;55019;49.382;11.358;2023-04-01T03:39:40;95192.09;;;6.93;92.60
68197;BME280;55019;49.382;11.358;2023-04-01T03:42:05;95184.72;;;6.90;92.40
68197;BME280;55019;49.382;11.358;2023-04-01T03:44:35;95193.25;;;6.90;93.10
68197;BME280;55019;49.382;11.358;2023-04-01T03:47:00;95199.03;;;6.84;92.93
68197;BME280;55019;49.382;11.358;2023-04-01T03:49:27;95198.25;;;6.84;93.07
68197;BME280;55019;49.382;11.358;2023-04-01T03:51:53;95197.28;;;6.85;94.07
68197;BME280;55019;49.382;11.358;2023-04-01T03:54:18;95200.84;;;6.84;92.85
68197;BME280;55019;49.382;11.358;2023-04-01T03:56:46;95200.03;;;6.83;92.36
68197;BME280;55019;49.382;11.358;2023-04-01T03:59:12;95201.91;;;6.89;92.50
68197;BME280;55019;49.382;11.358;2023-04-01T04:01:37;95215.41;;;6.83;92.19
68197;BME280;55019;49.382;11.358;2023-04-01T04:04:03;95206.75;;;6.84;92.83
68197;BME280;55019;49.382;11.358;2023-04-01T04:06:30;95213.13;;;6.88;93.02
68197;BME280;55019;49.382;11.358;2023-04-01T04:08:55;95208.97;;;6.87;91.99
68197;BME280;55019;49.382;11.358;2023-04-01T04:11:22;95223.38;;;6.96;91.88
68197;BME280;55019;49.382;11.358;2023-04-01T04:13:50;95208.00;;;6.88;91.48
68197;BME280;55019;49.382;11.358;2023-04-01T04:16:18;95210.06;;;6.93;91.23
68197;BME280;55019;49.382;11.358;2023-04-01T04:18:48;95200.13;;;6.90;92.04
68197;BME280;55019;49.382;11.358;2023-04-01T04:21:14;95203.06;;;6.87;91.14
68197;BME280;55019;49.382;11.358;2023-04-01T04:23:41;95205.63;;;6.87;91.49
68197;BME280;55019;49.382;11.358;2023-04-01T04:26:12;95208.69;;;6.82;91.88
68197;BME280;55019;49.382;11.358;2023-04-01T04:28:39;95207.44;;;6.78;92.15
68197;BME280;55019;49.382;11.358;2023-04-01T04:31:05;95216.59;;;6.81;93.04
68197;BME280;55019;49.382;11.358;2023-04-01T04:33:34;95221.72;;;6.81;92.65
68197;BME280;55019;49.382;11.358;2023-04-01T04:36:00;95207.00;;;6.75;92.85
68197;BME280;55019;49.382;11.358;2023-04-01T04:38:27;95219.03;;;6.74;93.58
68197;BME280;55019;49.382;11.358;2023-04-01T04:40:53;95216.47;;;6.74;92.54
68197;BME280;55019;49.382;11.358;2023-04-01T04:43:19;95218.06;;;6.75;92.85
68197;BME280;55019;49.382;11.358;2023-04-01T04:45:46;95216.81;;;6.71;92.54
68197;BME280;55019;49.382;11.358;2023-04-01T04:48:13;95217.72;;;6.78;92.51
68197;BME280;55019;49.382;11.358;2023-04-01T04:50:45;95212.91;;;6.75;92.65
68197;BME280;55019;49.382;11.358;2023-04-01T04:53:12;95216.38;;;6.68;92.56
68197;BME280;55019;49.382;11.358;2023-04-01T04:55:45;95227.88;;;6.72;93.99
68197;BME280;55019;49.382;11.358;2023-04-01T04:58:29;95222.91;;;6.70;93.05
68197;BME280;55019;49.382;11.358;2023-04-01T05:00:56;95222.13;;;6.70;93.76
68197;BME280;55019;49.382;11.358;2023-04-01T05:03:29;95215.91;;;6.64;94.05
68197;BME280;55019;49.382;11.358;2023-04-01T05:05:55;95217.22;;;6.60;93.74
68197;BME280;55019;49.382;11.358;2023-04-01T05:08:20;95221.53;;;6.60;93.84
68197;BME280;55019;49.382;11.358;2023-04-01T05:10:46;95211.81;;;6.55;94.09
68197;BME280;55019;49.382;11.358;2023-04-01T05:13:12;95224.22;;;6.66;94.86
68197;BME280;55019;49.382;11.358;2023-04-01T05:15:39;95216.25;;;6.61;94.22
68197;BME280;55019;49.382;11.358;2023-04-01T05:18:05;95219.44;;;6.63;93.66
68197;BME280;55019;49.382;11.358;2023-04-01T05:20:31;95212.72;;;6.62;93.61
68197;BME280;55019;49.382;11.358;2023-04-01T05:22:57;95214.19;;;6.57;93.10
68197;BME280;55019;49.382;11.358;2023-04-01T05:25:23;95218.19;;;6.59;93.53
68197;BME280;55019;49.382;11.358;2023-04-01T05:27:49;95205.97;;;6.61;94.08
68197;BME280;55019;49.382;11.358;2023-04-01T05:30:15;95202.78;;;6.59;93.18
68197;BME280;55019;49.382;11.358;2023-04-01T05:32:59;95211.13;;;6.61;93.13
68197;BME280;55019;49.382;11.358;2023-04-01T05:35:25;95214.66;;;6.60;92.83
68197;BME280;55019;49.382;11.358;2023-04-01T05:37:50;95218.53;;;6.56;92.46
68197;BME280;55019;49.382;11.358;2023-04-01T05:40:16;95225.53;;;6.62;92.00
68197;BME280;55019;49.382;11.358;2023-04-01T05:42:42;95227.75;;;6.65;92.42
68197;BME280;55019;49.382;11.358;2023-04-01T05:45:08;95215.28;;;6.62;92.25
68197;BME280;55019;49.382;11.358;2023-04-01T05:48:01;95220.34;;;6.70;91.03
68197;BME280;55019;49.382;11.358;2023-04-01T05:50:30;95222.91;;;6.70;91.97
68197;BME280;55019;49.382;11.358;2023-04-01T05:52:57;95217.84;;;6.62;91.76
68197;BME280;55019;49.382;11.358;2023-04-01T05:55:23;95222.75;;;6.72;90.54
68197;BME280;55019;49.382;11.358;2023-04-01T05:57:50;95224.78;;;6.76;91.49
68197;BME280;55019;49.382;11.358;2023-04-01T06:00:16;95199.53;;;6.65;90.79
68197;BME280;55019;49.382;11.358;2023-04-01T06:02:42;95221.72;;;6.81;89.83
68197;BME280;55019;49.382;11.358;2023-04-01T06:05:21;95221.53;;;6.82;90.02
68197;BME280;55019;49.382;11.358;2023-04-01T06:07:47;95234.13;;;6.92;89.77
68197;BME280;55019;49.382;11.358;2023-04-01T06:10:17;95228.53;;;6.88;89.71
68197;BME280;55019;49.382;11.358;2023-04-01T06:15:29;95229.81;;;6.92;88.77
68197;BME280;55019;49.382;11.358;2023-04-01T06:31:59;95227.66;;;7.18;86.80
68197;BME280;55019;49.382;11.358;2023-04-01T06:37:23;95222.28;;;7.27;86.14
68197;BME280;55019;49.382;11.358;2023-04-01T06:48:59;95238.41;;;7.50;83.84
68197;BME280;55019;49.382;11.358;2023-04-01T06:51:55;95242.22;;;7.54;83.08
68197;BME280;55019;49.382;11.358;2023-04-01T06:55:00;95242.13;;;7.48;82.78
68197;BME280;55019;49.382;11.358;2023-04-01T06:58:01;95235.75;;;7.44;82.84
68197;BME280;55019;49.382;11.358;2023-04-01T07:00:34;95235.06;;;7.50;83.12
68197;BME280;55019;49.382;11.358;2023-04-01T07:03:10;95231.84;;;7.48;82.87
68197;BME280;55019;49.382;11.358;2023-04-01T07:05:42;95238.25;;;7.52;82.43
68197;BME280;55019;49.382;11.358;2023-04-01T07:08:11;95231.16;;;7.54;82.34
68197;BME280;55019;49.382;11.358;2023-04-01T07:10:50;95232.47;;;7.64;80.81
68197;BME280;55019;49.382;11.358;2023-04-01T07:13:52;95236.22;;;7.76;80.98
68197;BME280;55019;49.382;11.358;2023-04-01T07:16:24;95236.09;;;7.70;79.47
68197;BME280;55019;49.382;11.358;2023-04-01T07:24:29;95231.75;;;7.99;78.49
68197;BME280;55019;49.382;11.358;2023-04-01T07:27:11;95231.75;;;7.99;78.92
68197;BME280;55019;49.382;11.358;2023-04-01T07:29:38;95229.38;;;7.98;79.54
68197;BME280;55019;49.382;11.358;2023-04-01T07:48:21;95243.13;;;8.19;76.77
68197;BME280;55019;49.382;11.358;2023-04-01T07:53:48;95233.25;;;8.23;79.05
68197;BME280;55019;49.382;11.358;2023-04-01T07:59:18;95248.50;;;8.10;80.56
68197;BME280;55019;49.382;11.358;2023-04-01T08:02:20;95238.94;;;8.04;80.79
68197;BME280;55019;49.382;11.358;2023-04-01T08:11:21;95247.53;;;7.96;81.37
68197;BME280;55019;49.382;11.358;2023-04-01T08:20:50;95251.28;;;7.94;80.68
68197;BME280;55019;49.382;11.358;2023-04-01T08:23:22;95251.34;;;8.00;81.31
68197;BME280;55019;49.382;11.358;2023-04-01T08:28:29;95256.84;;;8.12;79.94
68197;BME280;55019;49.382;11.358;2023-04-01T08:31:09;95248.06;;;8.21;78.36
68197;BME280;55019;49.382;11.358;2023-04-01T08:33:37;95238.22;;;8.24;78.15
68197;BME280;55019;49.382;11.358;2023-04-01T08:36:25;95253.66;;;8.24;79.04
68197;BME280;55019;49.382;11.358;2023-04-01T08:39:09;95246.38;;;8.28;77.81
68197;BME280;55019;49.382;11.358;2023-04-01T08:48:04;95234.72;;;8.32;78.21
68197;BME280;55019;49.382;11.358;2023-04-01T09:18:49;95226.09;;;8.18;83.39
68197;BME280;55019;49.382;11.358;2023-04-01T09:21:37;95239.81;;;8.11;83.87
68197;BME280;55019;49.382;11.358;2023-04-01T09:35:42;95246.19;;;8.15;83.59
68197;BME280;55019;49.382;11.358;2023-04-01T09:41:30;95242.50;;;8.17;84.27
68197;BME280;55019;49.382;11.358;2023-04-01T09:44:18;95243.34;;;8.10;84.50
68197;BME280;55019;49.382;11.358;2023-04-01T10:02:21;95253.84;;;7.94;89.79
68197;BME280;55019;49.382;11.358;2023-04-01T10:22:26;95253.72;;;8.16;90.86
68197;BME280;55019;49.382;11.358;2023-04-01T10:33:42;95244.81;;;7.83;95.68
68197;BME280;55019;49.382;11.358;2023-04-01T10:48:12;95243.88;;;7.91;98.29
68197;BME280;55019;49.382;11.358;2023-04-01T10:54:19;95245.50;;;8.21;98.12
68197;BME280;55019;49.382;11.358;2023-04-01T11:00:31;95230.28;;;8.61;96.93
68197;BME280;55019;49.382;11.358;2023-04-01T11:12:26;95242.75;;;8.08;97.83
68197;BME280;55019;49.382;11.358;2023-04-01T11:20:44;95238.31;;;7.87;100.00
68197;BME280;55019;49.382;11.358;2023-04-01T11:23:27;95234.41;;;7.91;100.00
68197;BME280;55019;49.382;11.358;2023-04-01T11:31:50;95230.59;;;7.73;100.00
68197;BME280;55019;49.382;11.358;2023-04-01T11:34:56;95245.50;;;7.63;100.00
68197;BME280;55019;49.382;11.358;2023-04-01T11:37:46;95250.75;;;7.55;100.00
68197;BME280;55019;49.382;11.358;2023-04-01T11:41:26;95248.66;;;7.36;100.00
68197;BME280;55019;49.382;11.358;2023-04-01T11:44:27;95242.03;;;7.41;100.00
68197;BME280;55019;49.382;11.358;2023-04-01T11:47:13;95250.00;;;7.46;100.00
68197;BME280;55019;49.382;11.358;2023-04-01T11:50:03;95251.59;;;7.47;100.00
68197;BME280;55019;49.382;11.358;2023-04-01T11:53:23;95250.91;;;7.53;100.00
68197;BME280;55019;49.382;11.358;2023-04-01T11:55:56;95255.53;;;7.58;100.00
68197;BME280;55019;49.382;11.358;2023-04-01T12:06:35;95250.66;;;7.63;100.00
68197;BME280;55019;49.382;11.358;2023-04-01T12:14:58;95256.16;;;7.60;100.00
68197;BME280;55019;49.382;11.358;2023-04-01T12:20:30;95257.00;;;7.38;100.00
68197;BME280;55019;49.382;11.358;2023-04-01T12:39:55;95262.13;;;7.38;100.00
68197;BME280;55019;49.382;11.358;2023-04-01T12:50:37;95273.16;;;7.61;100.00
68197;BME280;55019;49.382;11.358;2023-04-01T12:53:17;95264.47;;;7.62;100.00
68197;BME280;55019;49.382;11.358;2023-04-01T12:55:48;95270.69;;;7.67;100.00
68197;BME280;55019;49.382;11.358;2023-04-01T12:58:23;95261.47;;;7.44;100.00
68197;BME280;55019;49.382;11.358;2023-04-01T13:04:05;95272.50;;;7.44;100.00
68197;BME280;55019;49.382;11.358;2023-04-01T13:15:23;95270.03;;;7.36;100.00
68197;BME280;55019;49.382;11.358;2023-04-01T13:18:03;95272.13;;;7.33;100.00
68197;BME280;55019;49.382;11.358;2023-04-01T13:20:43;95272.94;;;7.33;100.00
68197;BME280;55019;49.382;11.358;2023-04-01T13:31:50;95281.19;;;7.43;100.00
68197;BME280;55019;49.382;11.358;2023-04-01T13:37:34;95292.84;;;7.54;100.00
68197;BME280;55019;49.382;11.358;2023-04-01T13:42:47;95282.56;;;7.54;100.00
68197;BME280;55019;49.382;11.358;2023-04-01T13:45:24;95284.59;;;7.58;100.00
68197;BME280;55019;49.382;11.358;2023-04-01T14:02:49;95290.50;;;7.44;100.00
68197;BME280;55019;49.382;11.358;2023-04-01T14:05:43;95282.97;;;7.57;100.00
68197;BME280;55019;49.382;11.358;2023-04-01T14:08:14;95286.19;;;7.59;100.00
68197;BME280;55019;49.382;11.358;2023-04-01T14:16:14;95294.09;;;7.72;100.00
68197;BME280;55019;49.382;11.358;2023-04-01T14:21:38;95287.09;;;7.66;100.00
68197;BME280;55019;49.382;11.358;2023-04-01T14:24:22;95289.56;;;7.60;100.00
68197;BME280;55019;49.382;11.358;2023-04-01T14:29:46;95289.03;;;7.50;100.00
68197;BME280;55019;49.382;11.358;2023-04-01T14:35:18;95301.88;;;7.64;100.00
68197;BME280;55019;49.382;11.358;2023-04-01T14:40:27;95298.06;;;7.60;100.00
68197;BME280;55019;49.382;11.358;2023-04-01T14:51:16;95299.09;;;7.51;100.00
68197;BME280;55019;49.382;11.358;2023-04-01T15:02:03;95306.97;;;7.35;100.00
68197;BME280;55019;49.382;11.358;2023-04-01T15:04:41;95305.53;;;7.33;100.00
68197;BME280;55019;49.382;11.358;2023-04-01T15:21:19;95312.38;;;7.40;100.00
68197;BME280;55019;49.382;11.358;2023-04-01T15:24:11;95313.19;;;7.41;100.00
68197;BME280;55019;49.382;11.358;2023-04-01T15:29:39;95320.06;;;7.26;100.00
68197;BME280;55019;49.382;11.358;2023-04-01T15:35:18;95330.31;;;7.26;100.00
68197;BME280;55019;49.382;11.358;2023-04-01T15:38:03;95329.00;;;7.30;100.00
68197;BME280;55019;49.382;11.358;2023-04-01T15:40:48;95323.09;;;7.29;100.00
68197;BME280;55019;49.382;11.358;2023-04-01T15:46:27;95339.63;;;7.27;100.00
68197;BME280;55019;49.382;11.358;2023-04-01T16:00:44;95340.94;;;7.23;100.00
68197;BME280;55019;49.382;11.358;2023-04-01T16:09:27;95348.38;;;7.18;100.00
68197;BME280;55019;49.382;11.358;2023-04-01T16:12:19;95338.03;;;7.26;100.00
68197;BME280;55019;49.382;11.358;2023-04-01T16:17:29;95342.03;;;7.28;100.00
68197;BME280;55019;49.382;11.358;2023-04-01T16:20:13;95345.59;;;7.27;100.00
68197;BME280;55019;49.382;11.358;2023-04-01T16:23:00;95346.91;;;7.23;100.00
68197;BME280;55019;49.382;11.358;2023-04-01T16:25:39;95348.66;;;7.23;100.00
68197;BME280;55019;49.382;11.358;2023-04-01T16:28:30;95350.88;;;7.26;100.00
68197;BME280;55019;49.382;11.358;2023-04-01T16:33:48;95354.13;;;7.20;100.00
68197;BME280;55019;49.382;11.358;2023-04-01T16:36:26;95361.16;;;7.26;100.00
68197;BME280;55019;49.382;11.358;2023-04-01T16:44:46;95353.38;;;7.11;100.00
68197;BME280;55019;49.382;11.358;2023-04-01T16:47:19;95370.19;;;7.22;100.00
68197;BME280;55019;49.382;11.358;2023-04-01T16:49:51;95368.47;;;7.14;100.00
68197;BME280;55019;49.382;11.358;2023-04-01T16:52:36;95372.34;;;7.10;100.00
68197;BME280;55019;49.382;11.358;2023-04-01T16:55:16;95383.44;;;7.11;100.00
68197;BME280;55019;49.382;11.358;2023-04-01T17:00:40;95379.41;;;7.08;100.00
68197;BME280;55019;49.382;11.358;2023-04-01T17:05:38;95388.91;;;7.08;100.00
68197;BME280;55019;49.382;11.358;2023-04-01T17:11:06;95395.97;;;7.06;100.00
68197;BME280;55019;49.382;11.358;2023-04-01T17:21:15;95395.56;;;6.95;100.00
68197;BME280;55019;49.382;11.358;2023-04-01T17:23:53;95400.69;;;6.95;100.00
68197;BME280;55019;49.382;11.358;2023-04-01T17:26:45;95406.00;;;6.93;100.00
68197;BME280;55019;49.382;11.358;2023-04-01T17:29:16;95404.06;;;6.95;100.00
68197;BME280;55019;49.382;11.358;2023-04-01T17:35:09;95414.69;;;6.92;100.00
68197;BME280;55019;49.382;11.358;2023-04-01T17:40:33;95420.59;;;6.93;100.00
68197;BME280;55019;49.382;11.358;2023-04-01T17:45:55;95418.22;;;6.83;100.00
68197;BME280;55019;49.382;11.358;2023-04-01T17:57:44;95436.69;;;6.87;100.00
68197;BME280;55019;49.382;11.358;2023-04-01T18:03:01;95445.50;;;6.84;100.00
68197;BME280;55019;49.382;11.358;2023-04-01T18:08:59;95441.69;;;6.80;100.00
68197;BME280;55019;49.382;11.358;2023-04-01T18:21:52;95456.75;;;6.83;100.00
68197;BME280;55019;49.382;11.358;2023-04-01T18:27:17;95466.03;;;6.92;100.00
68197;BME280;55019;49.382;11.358;2023-04-01T18:29:51;95467.63;;;6.93;100.00
68197;BME280;55019;49.382;11.358;2023-04-01T18:32:31;95471.19;;;6.92;100.00
68197;BME280;55019;49.382;11.358;2023-04-01T18:38:06;95473.41;;;6.95;100.00
68197;BME280;55019;49.382;11.358;2023-04-01T18:40:38;95475.63;;;6.98;100.00
68197;BME280;55019;49.382;11.358;2023-04-01T18:46:00;95480.28;;;6.95;100.00
68197;BME280;55019;49.382;11.358;2023-04-01T18:49:05;95477.25;;;6.99;100.00
68197;BME280;55019;49.382;11.358;2023-04-01T18:54:21;95489.78;;;6.94;100.00
68197;BME280;55019;49.382;11.358;2023-04-01T18:56:49;95493.31;;;6.93;100.00
68197;BME280;55019;49.382;11.358;2023-04-01T19:00:03;95498.25;;;6.95;100.00
68197;BME280;55019;49.382;11.358;2023-04-01T19:02:25;95499.19;;;7.02;100.00
68197;BME280;55019;49.382;11.358;2023-04-01T19:07:47;95506.94;;;6.94;100.00
68197;BME280;55019;49.382;11.358;2023-04-01T19:13:01;95516.53;;;7.00;100.00
68197;BME280;55019;49.382;11.358;2023-04-01T19:21:18;95515.47;;;6.94;100.00
68197;BME280;55019;49.382;11.358;2023-04-01T19:24:07;95507.09;;;7.00;100.00
68197;BME280;55019;49.382;11.358;2023-04-01T19:26:42;95509.66;;;7.00;100.00
68197;BME280;55019;49.382;11.358;2023-04-01T19:35:09;95520.25;;;6.97;100.00
68197;BME280;55019;49.382;11.358;2023-04-01T19:37:44;95516.38;;;7.01;100.00
68197;BME280;55019;49.382;11.358;2023-04-01T19:45:50;95524.13;;;6.93;100.00
68197;BME280;55019;49.382;11.358;2023-04-01T19:51:06;95526.19;;;6.98;100.00
68197;BME280;55019;49.382;11.358;2023-04-01T19:53:56;95530.69;;;6.96;100.00
68197;BME280;55019;49.382;11.358;2023-04-01T19:56:35;95528.59;;;6.99;100.00
68197;BME280;55019;49.382;11.358;2023-04-01T19:59:16;95529.72;;;6.97;100.00
68197;BME280;55019;49.382;11.358;2023-04-01T20:04:37;95545.13;;;6.97;100.00
68197;BME280;55019;49.382;11.358;2023-04-01T20:07:20;95547.53;;;6.98;100.00
68197;BME280;55019;49.382;11.358;2023-04-01T20:10:09;95561.34;;;6.97;100.00
68197;BME280;55019;49.382;11.358;2023-04-01T20:12:51;95548.66;;;6.96;100.00
68197;BME280;55019;49.382;11.358;2023-04-01T20:15:38;95549.47;;;6.88;100.00
68197;BME280;55019;49.382;11.358;2023-04-01T20:18:15;95559.44;;;6.83;100.00
68197;BME280;55019;49.382;11.358;2023-04-01T20:21:00;95556.22;;;6.81;100.00
68197;BME280;55019;49.382;11.358;2023-04-01T20:23:38;95558.66;;;6.83;100.00
68197;BME280;55019;49.382;11.358;2023-04-01T20:26:11;95558.81;;;6.81;100.00
68197;BME280;55019;49.382;11.358;2023-04-01T20:37:02;95564.63;;;6.67;100.00
68197;BME280;55019;49.382;11.358;2023-04-01T20:42:27;95562.38;;;6.64;100.00
68197;BME280;55019;49.382;11.358;2023-04-01T20:51:05;95577.31;;;6.69;100.00
68197;BME280;55019;49.382;11.358;2023-04-01T20:59:32;95566.88;;;6.62;100.00
68197;BME280;55019;49.382;11.358;2023-04-01T21:02:08;95572.78;;;6.63;100.00
68197;BME280;55019;49.382;11.358;2023-04-01T21:07:39;95585.97;;;6.60;100.00
68197;BME280;55019;49.382;11.358;2023-04-01T21:10:33;95580.34;;;6.64;100.00
68197;BME280;55019;49.382;11.358;2023-04-01T21:15:53;95590.75;;;6.63;100.00
68197;BME280;55019;49.382;11.358;2023-04-01T21:23:35;95598.00;;;6.59;100.00
68197;BME280;55019;49.382;11.358;2023-04-01T21:34:49;95605.69;;;6.67;100.00
68197;BME280;55019;49.382;11.358;2023-04-01T21:37:36;95608.91;;;6.69;100.00
68197;BME280;55019;49.382;11.358;2023-04-01T21:40:32;95609.38;;;6.73;100.00
68197;BME280;55019;49.382;11.358;2023-04-01T21:54:30;95618.50;;;6.75;100.00
68197;BME280;55019;49.382;11.358;2023-04-01T22:02:56;95629.94;;;6.65;100.00
68197;BME280;55019;49.382;11.358;2023-04-01T22:05:31;95633.28;;;6.65;100.00
68197;BME280;55019;49.382;11.358;2023-04-01T22:08:23;95629.09;;;6.72;100.00
68197;BME280;55019;49.382;11.358;2023-04-01T22:11:03;95632.63;;;6.71;100.00
68197;BME280;55019;49.382;11.358;2023-04-01T22:13:43;95637.31;;;6.68;100.00
68197;BME280;55019;49.382;11.358;2023-04-01T22:16:36;95631.19;;;6.61;100.00
68197;BME280;55019;49.382;11.358;2023-04-01T22:19:36;95633.59;;;6.62;100.00
68197;BME280;55019;49.382;11.358;2023-04-01T22:22:31;95640.84;;;6.67;100.00
68197;BME280;55019;49.382;11.358;2023-04-01T22:25:14;95634.56;;;6.69;100.00
68197;BME280;55019;49.382;11.358;2023-04-01T22:27:46;95648.34;;;6.68;100.00